<?xml version="1.0" encoding="UTF-8" standalone="no" ?>
<gpx xmlns="http://www.topografix.com/GPX/1/1" xmlns:xsi="http://www.w3.org/2001/XMLSchema-instance" xsi:schemaLocation="http://www.topografix.com/GPX/1/1 http://www.topografix.com/GPX/1/1/gpx.xsd" version="1.1" creator="VisuGPX - https://www.visugpx.com">
  <metadata>
    <name>Balade au kaolin 2018 (Février)</name>
    <desc><![CDATA[Marche pas trop longue à faire pour se resourcé ]]></desc>
  </metadata>
  <trk>
    <name><![CDATA[Au Kaolin libin]]></name>
    <cmt><![CDATA[Petite balade pour choupy son genoux
]]></cmt>
    <trkseg>
      <trkpt lat="49.99936" lon="5.25527">
        <ele>350</ele>
        <time>2018-02-25T12:08:10Z</time>
      </trkpt>
      <trkpt lat="49.99928" lon="5.25526">
        <ele>349</ele>
        <time>2018-02-25T12:08:21Z</time>
      </trkpt>
      <trkpt lat="49.9992" lon="5.25524">
        <ele>350</ele>
        <time>2018-02-25T12:08:31Z</time>
      </trkpt>
      <trkpt lat="49.99914" lon="5.2552">
        <ele>350</ele>
        <time>2018-02-25T12:08:41Z</time>
      </trkpt>
      <trkpt lat="49.99907" lon="5.25518">
        <ele>349</ele>
        <time>2018-02-25T12:08:52Z</time>
      </trkpt>
      <trkpt lat="49.99898" lon="5.25514">
        <ele>349</ele>
        <time>2018-02-25T12:09:03Z</time>
      </trkpt>
      <trkpt lat="49.99889" lon="5.25508">
        <ele>349</ele>
        <time>2018-02-25T12:09:13Z</time>
      </trkpt>
      <trkpt lat="49.99882" lon="5.25513">
        <ele>348</ele>
        <time>2018-02-25T12:09:23Z</time>
      </trkpt>
      <trkpt lat="49.99881" lon="5.25512">
        <ele>349</ele>
        <time>2018-02-25T12:09:34Z</time>
      </trkpt>
      <trkpt lat="49.99878" lon="5.25514">
        <ele>348</ele>
        <time>2018-02-25T12:09:45Z</time>
      </trkpt>
      <trkpt lat="49.99873" lon="5.25517">
        <ele>348</ele>
        <time>2018-02-25T12:09:55Z</time>
      </trkpt>
      <trkpt lat="49.99865" lon="5.25522">
        <ele>348</ele>
        <time>2018-02-25T12:10:05Z</time>
      </trkpt>
      <trkpt lat="49.99859" lon="5.25529">
        <ele>347</ele>
        <time>2018-02-25T12:10:16Z</time>
      </trkpt>
      <trkpt lat="49.99852" lon="5.25535">
        <ele>347</ele>
        <time>2018-02-25T12:10:26Z</time>
      </trkpt>
      <trkpt lat="49.99844" lon="5.25541">
        <ele>347</ele>
        <time>2018-02-25T12:10:37Z</time>
      </trkpt>
      <trkpt lat="49.99835" lon="5.25548">
        <ele>347</ele>
        <time>2018-02-25T12:10:50Z</time>
      </trkpt>
      <trkpt lat="49.99824" lon="5.25552">
        <ele>346</ele>
        <time>2018-02-25T12:11:01Z</time>
      </trkpt>
      <trkpt lat="49.99818" lon="5.25557">
        <ele>345</ele>
        <time>2018-02-25T12:11:11Z</time>
      </trkpt>
      <trkpt lat="49.99811" lon="5.25563">
        <ele>346</ele>
        <time>2018-02-25T12:11:21Z</time>
      </trkpt>
      <trkpt lat="49.99804" lon="5.25568">
        <ele>346</ele>
        <time>2018-02-25T12:11:32Z</time>
      </trkpt>
      <trkpt lat="49.99796" lon="5.25571">
        <ele>345</ele>
        <time>2018-02-25T12:11:42Z</time>
      </trkpt>
      <trkpt lat="49.99789" lon="5.25576">
        <ele>345</ele>
        <time>2018-02-25T12:11:52Z</time>
      </trkpt>
      <trkpt lat="49.99781" lon="5.2558">
        <ele>345</ele>
        <time>2018-02-25T12:12:03Z</time>
      </trkpt>
      <trkpt lat="49.99769" lon="5.25581">
        <ele>345</ele>
        <time>2018-02-25T12:12:14Z</time>
      </trkpt>
      <trkpt lat="49.9976" lon="5.25585">
        <ele>344</ele>
        <time>2018-02-25T12:12:24Z</time>
      </trkpt>
      <trkpt lat="49.9975" lon="5.25589">
        <ele>344</ele>
        <time>2018-02-25T12:12:35Z</time>
      </trkpt>
      <trkpt lat="49.99741" lon="5.25595">
        <ele>343</ele>
        <time>2018-02-25T12:12:46Z</time>
      </trkpt>
      <trkpt lat="49.99737" lon="5.25598">
        <ele>343</ele>
        <time>2018-02-25T12:12:57Z</time>
      </trkpt>
      <trkpt lat="49.99729" lon="5.25599">
        <ele>342</ele>
        <time>2018-02-25T12:13:07Z</time>
      </trkpt>
      <trkpt lat="49.9972" lon="5.25603">
        <ele>343</ele>
        <time>2018-02-25T12:13:18Z</time>
      </trkpt>
      <trkpt lat="49.99711" lon="5.25609">
        <ele>342</ele>
        <time>2018-02-25T12:13:28Z</time>
      </trkpt>
      <trkpt lat="49.99703" lon="5.25613">
        <ele>342</ele>
        <time>2018-02-25T12:13:38Z</time>
      </trkpt>
      <trkpt lat="49.99694" lon="5.25617">
        <ele>342</ele>
        <time>2018-02-25T12:13:49Z</time>
      </trkpt>
      <trkpt lat="49.99685" lon="5.25621">
        <ele>342</ele>
        <time>2018-02-25T12:14:00Z</time>
      </trkpt>
      <trkpt lat="49.99677" lon="5.25626">
        <ele>342</ele>
        <time>2018-02-25T12:14:10Z</time>
      </trkpt>
      <trkpt lat="49.99671" lon="5.25628">
        <ele>342</ele>
        <time>2018-02-25T12:14:21Z</time>
      </trkpt>
      <trkpt lat="49.99661" lon="5.25633">
        <ele>342</ele>
        <time>2018-02-25T12:14:31Z</time>
      </trkpt>
      <trkpt lat="49.9965" lon="5.2564">
        <ele>341</ele>
        <time>2018-02-25T12:14:42Z</time>
      </trkpt>
      <trkpt lat="49.99641" lon="5.25644">
        <ele>341</ele>
        <time>2018-02-25T12:14:52Z</time>
      </trkpt>
      <trkpt lat="49.99634" lon="5.2565">
        <ele>340</ele>
        <time>2018-02-25T12:15:02Z</time>
      </trkpt>
      <trkpt lat="49.99627" lon="5.25654">
        <ele>340</ele>
        <time>2018-02-25T12:15:12Z</time>
      </trkpt>
      <trkpt lat="49.99622" lon="5.25661">
        <ele>340</ele>
        <time>2018-02-25T12:15:23Z</time>
      </trkpt>
      <trkpt lat="49.99622" lon="5.2567">
        <ele>340</ele>
        <time>2018-02-25T12:15:34Z</time>
      </trkpt>
      <trkpt lat="49.9962" lon="5.25684">
        <ele>341</ele>
        <time>2018-02-25T12:15:44Z</time>
      </trkpt>
      <trkpt lat="49.9962" lon="5.257">
        <ele>341</ele>
        <time>2018-02-25T12:15:55Z</time>
      </trkpt>
      <trkpt lat="49.99618" lon="5.25718">
        <ele>343</ele>
        <time>2018-02-25T12:16:06Z</time>
      </trkpt>
      <trkpt lat="49.99618" lon="5.25732">
        <ele>343</ele>
        <time>2018-02-25T12:16:16Z</time>
      </trkpt>
      <trkpt lat="49.99618" lon="5.25748">
        <ele>343</ele>
        <time>2018-02-25T12:16:27Z</time>
      </trkpt>
      <trkpt lat="49.99619" lon="5.25759">
        <ele>343</ele>
        <time>2018-02-25T12:16:37Z</time>
      </trkpt>
      <trkpt lat="49.99619" lon="5.2577">
        <ele>343</ele>
        <time>2018-02-25T12:16:47Z</time>
      </trkpt>
      <trkpt lat="49.99619" lon="5.25782">
        <ele>344</ele>
        <time>2018-02-25T12:16:57Z</time>
      </trkpt>
      <trkpt lat="49.9962" lon="5.25794">
        <ele>345</ele>
        <time>2018-02-25T12:17:07Z</time>
      </trkpt>
      <trkpt lat="49.99618" lon="5.25807">
        <ele>345</ele>
        <time>2018-02-25T12:17:18Z</time>
      </trkpt>
      <trkpt lat="49.99617" lon="5.25824">
        <ele>346</ele>
        <time>2018-02-25T12:17:28Z</time>
      </trkpt>
      <trkpt lat="49.99614" lon="5.25842">
        <ele>346</ele>
        <time>2018-02-25T12:17:38Z</time>
      </trkpt>
      <trkpt lat="49.99614" lon="5.25856">
        <ele>347</ele>
        <time>2018-02-25T12:17:49Z</time>
      </trkpt>
      <trkpt lat="49.99614" lon="5.25866">
        <ele>347</ele>
        <time>2018-02-25T12:17:59Z</time>
      </trkpt>
      <trkpt lat="49.99612" lon="5.25876">
        <ele>347</ele>
        <time>2018-02-25T12:18:10Z</time>
      </trkpt>
      <trkpt lat="49.99612" lon="5.2589">
        <ele>348</ele>
        <time>2018-02-25T12:18:21Z</time>
      </trkpt>
      <trkpt lat="49.99611" lon="5.25905">
        <ele>348</ele>
        <time>2018-02-25T12:18:31Z</time>
      </trkpt>
      <trkpt lat="49.99612" lon="5.25921">
        <ele>349</ele>
        <time>2018-02-25T12:18:41Z</time>
      </trkpt>
      <trkpt lat="49.99611" lon="5.25933">
        <ele>349</ele>
        <time>2018-02-25T12:18:51Z</time>
      </trkpt>
      <trkpt lat="49.99612" lon="5.25943">
        <ele>349</ele>
        <time>2018-02-25T12:19:01Z</time>
      </trkpt>
      <trkpt lat="49.99611" lon="5.25951">
        <ele>350</ele>
        <time>2018-02-25T12:19:11Z</time>
      </trkpt>
      <trkpt lat="49.99611" lon="5.25964">
        <ele>351</ele>
        <time>2018-02-25T12:19:21Z</time>
      </trkpt>
      <trkpt lat="49.99614" lon="5.25975">
        <ele>351</ele>
        <time>2018-02-25T12:19:32Z</time>
      </trkpt>
      <trkpt lat="49.99615" lon="5.25985">
        <ele>351</ele>
        <time>2018-02-25T12:19:42Z</time>
      </trkpt>
      <trkpt lat="49.99614" lon="5.25996">
        <ele>352</ele>
        <time>2018-02-25T12:19:52Z</time>
      </trkpt>
      <trkpt lat="49.99615" lon="5.26003">
        <ele>352</ele>
        <time>2018-02-25T12:20:02Z</time>
      </trkpt>
      <trkpt lat="49.99617" lon="5.26012">
        <ele>352</ele>
        <time>2018-02-25T12:20:12Z</time>
      </trkpt>
      <trkpt lat="49.99619" lon="5.26024">
        <ele>352</ele>
        <time>2018-02-25T12:20:22Z</time>
      </trkpt>
      <trkpt lat="49.99618" lon="5.26035">
        <ele>353</ele>
        <time>2018-02-25T12:20:33Z</time>
      </trkpt>
      <trkpt lat="49.9962" lon="5.26045">
        <ele>353</ele>
        <time>2018-02-25T12:20:43Z</time>
      </trkpt>
      <trkpt lat="49.9962" lon="5.26054">
        <ele>353</ele>
        <time>2018-02-25T12:20:54Z</time>
      </trkpt>
      <trkpt lat="49.99621" lon="5.26068">
        <ele>354</ele>
        <time>2018-02-25T12:21:05Z</time>
      </trkpt>
      <trkpt lat="49.99619" lon="5.26082">
        <ele>353</ele>
        <time>2018-02-25T12:21:16Z</time>
      </trkpt>
      <trkpt lat="49.99618" lon="5.26096">
        <ele>355</ele>
        <time>2018-02-25T12:21:26Z</time>
      </trkpt>
      <trkpt lat="49.99616" lon="5.26113">
        <ele>355</ele>
        <time>2018-02-25T12:21:37Z</time>
      </trkpt>
      <trkpt lat="49.99618" lon="5.26123">
        <ele>356</ele>
        <time>2018-02-25T12:21:47Z</time>
      </trkpt>
      <trkpt lat="49.9962" lon="5.26133">
        <ele>357</ele>
        <time>2018-02-25T12:21:58Z</time>
      </trkpt>
      <trkpt lat="49.99622" lon="5.26146">
        <ele>357</ele>
        <time>2018-02-25T12:22:09Z</time>
      </trkpt>
      <trkpt lat="49.99623" lon="5.26159">
        <ele>357</ele>
        <time>2018-02-25T12:22:19Z</time>
      </trkpt>
      <trkpt lat="49.99622" lon="5.26174">
        <ele>357</ele>
        <time>2018-02-25T12:22:29Z</time>
      </trkpt>
      <trkpt lat="49.99623" lon="5.26186">
        <ele>357</ele>
        <time>2018-02-25T12:22:39Z</time>
      </trkpt>
      <trkpt lat="49.99623" lon="5.262">
        <ele>358</ele>
        <time>2018-02-25T12:22:49Z</time>
      </trkpt>
      <trkpt lat="49.99624" lon="5.26214">
        <ele>358</ele>
        <time>2018-02-25T12:23:00Z</time>
      </trkpt>
      <trkpt lat="49.99626" lon="5.26228">
        <ele>358</ele>
        <time>2018-02-25T12:23:11Z</time>
      </trkpt>
      <trkpt lat="49.99627" lon="5.26238">
        <ele>358</ele>
        <time>2018-02-25T12:23:21Z</time>
      </trkpt>
      <trkpt lat="49.99628" lon="5.26248">
        <ele>358</ele>
        <time>2018-02-25T12:23:32Z</time>
      </trkpt>
      <trkpt lat="49.99629" lon="5.26262">
        <ele>359</ele>
        <time>2018-02-25T12:23:42Z</time>
      </trkpt>
      <trkpt lat="49.9963" lon="5.26276">
        <ele>359</ele>
        <time>2018-02-25T12:23:52Z</time>
      </trkpt>
      <trkpt lat="49.99632" lon="5.26291">
        <ele>359</ele>
        <time>2018-02-25T12:24:03Z</time>
      </trkpt>
      <trkpt lat="49.99635" lon="5.26304">
        <ele>359</ele>
        <time>2018-02-25T12:24:14Z</time>
      </trkpt>
      <trkpt lat="49.99636" lon="5.26318">
        <ele>359</ele>
        <time>2018-02-25T12:24:24Z</time>
      </trkpt>
      <trkpt lat="49.99636" lon="5.26331">
        <ele>358</ele>
        <time>2018-02-25T12:24:35Z</time>
      </trkpt>
      <trkpt lat="49.99638" lon="5.2634">
        <ele>358</ele>
        <time>2018-02-25T12:24:45Z</time>
      </trkpt>
      <trkpt lat="49.9964" lon="5.26351">
        <ele>358</ele>
        <time>2018-02-25T12:24:56Z</time>
      </trkpt>
      <trkpt lat="49.9964" lon="5.26365">
        <ele>358</ele>
        <time>2018-02-25T12:25:07Z</time>
      </trkpt>
      <trkpt lat="49.99641" lon="5.26377">
        <ele>358</ele>
        <time>2018-02-25T12:25:17Z</time>
      </trkpt>
      <trkpt lat="49.99638" lon="5.26391">
        <ele>358</ele>
        <time>2018-02-25T12:25:28Z</time>
      </trkpt>
      <trkpt lat="49.99638" lon="5.26407">
        <ele>357</ele>
        <time>2018-02-25T12:25:39Z</time>
      </trkpt>
      <trkpt lat="49.99639" lon="5.26418">
        <ele>357</ele>
        <time>2018-02-25T12:25:49Z</time>
      </trkpt>
      <trkpt lat="49.9964" lon="5.26432">
        <ele>357</ele>
        <time>2018-02-25T12:26:00Z</time>
      </trkpt>
      <trkpt lat="49.9964" lon="5.26446">
        <ele>356</ele>
        <time>2018-02-25T12:26:11Z</time>
      </trkpt>
      <trkpt lat="49.99641" lon="5.26458">
        <ele>356</ele>
        <time>2018-02-25T12:26:21Z</time>
      </trkpt>
      <trkpt lat="49.99643" lon="5.2647">
        <ele>357</ele>
        <time>2018-02-25T12:26:32Z</time>
      </trkpt>
      <trkpt lat="49.99644" lon="5.26484">
        <ele>357</ele>
        <time>2018-02-25T12:26:42Z</time>
      </trkpt>
      <trkpt lat="49.99642" lon="5.26499">
        <ele>357</ele>
        <time>2018-02-25T12:26:53Z</time>
      </trkpt>
      <trkpt lat="49.99643" lon="5.2651">
        <ele>356</ele>
        <time>2018-02-25T12:27:03Z</time>
      </trkpt>
      <trkpt lat="49.99642" lon="5.26522">
        <ele>357</ele>
        <time>2018-02-25T12:27:14Z</time>
      </trkpt>
      <trkpt lat="49.99643" lon="5.26533">
        <ele>356</ele>
        <time>2018-02-25T12:27:24Z</time>
      </trkpt>
      <trkpt lat="49.99642" lon="5.26545">
        <ele>356</ele>
        <time>2018-02-25T12:27:34Z</time>
      </trkpt>
      <trkpt lat="49.99642" lon="5.26559">
        <ele>356</ele>
        <time>2018-02-25T12:27:45Z</time>
      </trkpt>
      <trkpt lat="49.99642" lon="5.26577">
        <ele>355</ele>
        <time>2018-02-25T12:27:57Z</time>
      </trkpt>
      <trkpt lat="49.9964" lon="5.26592">
        <ele>356</ele>
        <time>2018-02-25T12:28:07Z</time>
      </trkpt>
      <trkpt lat="49.99639" lon="5.26606">
        <ele>356</ele>
        <time>2018-02-25T12:28:17Z</time>
      </trkpt>
      <trkpt lat="49.99637" lon="5.26617">
        <ele>356</ele>
        <time>2018-02-25T12:28:27Z</time>
      </trkpt>
      <trkpt lat="49.99636" lon="5.26631">
        <ele>356</ele>
        <time>2018-02-25T12:28:38Z</time>
      </trkpt>
      <trkpt lat="49.99634" lon="5.26644">
        <ele>356</ele>
        <time>2018-02-25T12:28:48Z</time>
      </trkpt>
      <trkpt lat="49.99632" lon="5.26658">
        <ele>355</ele>
        <time>2018-02-25T12:28:58Z</time>
      </trkpt>
      <trkpt lat="49.9963" lon="5.26672">
        <ele>355</ele>
        <time>2018-02-25T12:29:09Z</time>
      </trkpt>
      <trkpt lat="49.99629" lon="5.26683">
        <ele>355</ele>
        <time>2018-02-25T12:29:19Z</time>
      </trkpt>
      <trkpt lat="49.99626" lon="5.26696">
        <ele>355</ele>
        <time>2018-02-25T12:29:29Z</time>
      </trkpt>
      <trkpt lat="49.99624" lon="5.26709">
        <ele>355</ele>
        <time>2018-02-25T12:29:40Z</time>
      </trkpt>
      <trkpt lat="49.99622" lon="5.26724">
        <ele>355</ele>
        <time>2018-02-25T12:29:51Z</time>
      </trkpt>
      <trkpt lat="49.9962" lon="5.26738">
        <ele>354</ele>
        <time>2018-02-25T12:30:02Z</time>
      </trkpt>
      <trkpt lat="49.99619" lon="5.2675">
        <ele>354</ele>
        <time>2018-02-25T12:30:12Z</time>
      </trkpt>
      <trkpt lat="49.99619" lon="5.26763">
        <ele>354</ele>
        <time>2018-02-25T12:30:22Z</time>
      </trkpt>
      <trkpt lat="49.99621" lon="5.26776">
        <ele>354</ele>
        <time>2018-02-25T12:30:33Z</time>
      </trkpt>
      <trkpt lat="49.99625" lon="5.26784">
        <ele>354</ele>
        <time>2018-02-25T12:30:43Z</time>
      </trkpt>
      <trkpt lat="49.99631" lon="5.2679">
        <ele>355</ele>
        <time>2018-02-25T12:30:53Z</time>
      </trkpt>
      <trkpt lat="49.99638" lon="5.26796">
        <ele>356</ele>
        <time>2018-02-25T12:31:03Z</time>
      </trkpt>
      <trkpt lat="49.99645" lon="5.26802">
        <ele>356</ele>
        <time>2018-02-25T12:31:14Z</time>
      </trkpt>
      <trkpt lat="49.99652" lon="5.26806">
        <ele>356</ele>
        <time>2018-02-25T12:31:24Z</time>
      </trkpt>
      <trkpt lat="49.99658" lon="5.26812">
        <ele>356</ele>
        <time>2018-02-25T12:31:34Z</time>
      </trkpt>
      <trkpt lat="49.99665" lon="5.2682">
        <ele>356</ele>
        <time>2018-02-25T12:31:45Z</time>
      </trkpt>
      <trkpt lat="49.99673" lon="5.26826">
        <ele>356</ele>
        <time>2018-02-25T12:31:55Z</time>
      </trkpt>
      <trkpt lat="49.99685" lon="5.26833">
        <ele>355</ele>
        <time>2018-02-25T12:32:06Z</time>
      </trkpt>
      <trkpt lat="49.99694" lon="5.2684">
        <ele>354</ele>
        <time>2018-02-25T12:32:17Z</time>
      </trkpt>
      <trkpt lat="49.99701" lon="5.26847">
        <ele>354</ele>
        <time>2018-02-25T12:32:27Z</time>
      </trkpt>
      <trkpt lat="49.99708" lon="5.26853">
        <ele>354</ele>
        <time>2018-02-25T12:32:37Z</time>
      </trkpt>
      <trkpt lat="49.99715" lon="5.26863">
        <ele>353</ele>
        <time>2018-02-25T12:32:48Z</time>
      </trkpt>
      <trkpt lat="49.99721" lon="5.26873">
        <ele>352</ele>
        <time>2018-02-25T12:32:59Z</time>
      </trkpt>
      <trkpt lat="49.99725" lon="5.26882">
        <ele>352</ele>
        <time>2018-02-25T12:33:09Z</time>
      </trkpt>
      <trkpt lat="49.99732" lon="5.26892">
        <ele>352</ele>
        <time>2018-02-25T12:33:19Z</time>
      </trkpt>
      <trkpt lat="49.99738" lon="5.26906">
        <ele>352</ele>
        <time>2018-02-25T12:33:30Z</time>
      </trkpt>
      <trkpt lat="49.99744" lon="5.26917">
        <ele>350</ele>
        <time>2018-02-25T12:33:41Z</time>
      </trkpt>
      <trkpt lat="49.9975" lon="5.2693">
        <ele>350</ele>
        <time>2018-02-25T12:33:52Z</time>
      </trkpt>
      <trkpt lat="49.99756" lon="5.26941">
        <ele>350</ele>
        <time>2018-02-25T12:34:02Z</time>
      </trkpt>
      <trkpt lat="49.99762" lon="5.26954">
        <ele>348</ele>
        <time>2018-02-25T12:34:13Z</time>
      </trkpt>
      <trkpt lat="49.99766" lon="5.26969">
        <ele>348</ele>
        <time>2018-02-25T12:34:24Z</time>
      </trkpt>
      <trkpt lat="49.99769" lon="5.26983">
        <ele>347</ele>
        <time>2018-02-25T12:34:34Z</time>
      </trkpt>
      <trkpt lat="49.99772" lon="5.26998">
        <ele>347</ele>
        <time>2018-02-25T12:34:45Z</time>
      </trkpt>
      <trkpt lat="49.99778" lon="5.27007">
        <ele>346</ele>
        <time>2018-02-25T12:34:55Z</time>
      </trkpt>
      <trkpt lat="49.99783" lon="5.27017">
        <ele>345</ele>
        <time>2018-02-25T12:35:06Z</time>
      </trkpt>
      <trkpt lat="49.99786" lon="5.2703">
        <ele>344</ele>
        <time>2018-02-25T12:35:17Z</time>
      </trkpt>
      <trkpt lat="49.9979" lon="5.27043">
        <ele>344</ele>
        <time>2018-02-25T12:35:28Z</time>
      </trkpt>
      <trkpt lat="49.99794" lon="5.27049">
        <ele>344</ele>
        <time>2018-02-25T12:35:38Z</time>
      </trkpt>
      <trkpt lat="49.99797" lon="5.27041">
        <ele>344</ele>
        <time>2018-02-25T12:35:48Z</time>
      </trkpt>
      <trkpt lat="49.99792" lon="5.2703">
        <ele>345</ele>
        <time>2018-02-25T12:35:59Z</time>
      </trkpt>
      <trkpt lat="49.99786" lon="5.27014">
        <ele>346</ele>
        <time>2018-02-25T12:36:10Z</time>
      </trkpt>
      <trkpt lat="49.99781" lon="5.27">
        <ele>347</ele>
        <time>2018-02-25T12:36:20Z</time>
      </trkpt>
      <trkpt lat="49.99776" lon="5.26988">
        <ele>348</ele>
        <time>2018-02-25T12:36:31Z</time>
      </trkpt>
      <trkpt lat="49.99771" lon="5.26975">
        <ele>348</ele>
        <time>2018-02-25T12:36:42Z</time>
      </trkpt>
      <trkpt lat="49.99767" lon="5.26965">
        <ele>349</ele>
        <time>2018-02-25T12:36:53Z</time>
      </trkpt>
      <trkpt lat="49.99762" lon="5.26954">
        <ele>350</ele>
        <time>2018-02-25T12:37:03Z</time>
      </trkpt>
      <trkpt lat="49.99757" lon="5.2694">
        <ele>350</ele>
        <time>2018-02-25T12:37:14Z</time>
      </trkpt>
      <trkpt lat="49.99752" lon="5.2693">
        <ele>351</ele>
        <time>2018-02-25T12:37:24Z</time>
      </trkpt>
      <trkpt lat="49.99746" lon="5.26922">
        <ele>352</ele>
        <time>2018-02-25T12:37:35Z</time>
      </trkpt>
      <trkpt lat="49.99741" lon="5.2691">
        <ele>353</ele>
        <time>2018-02-25T12:37:46Z</time>
      </trkpt>
      <trkpt lat="49.99736" lon="5.26901">
        <ele>352</ele>
        <time>2018-02-25T12:37:56Z</time>
      </trkpt>
      <trkpt lat="49.99728" lon="5.26894">
        <ele>353</ele>
        <time>2018-02-25T12:38:06Z</time>
      </trkpt>
      <trkpt lat="49.99721" lon="5.26885">
        <ele>354</ele>
        <time>2018-02-25T12:38:17Z</time>
      </trkpt>
      <trkpt lat="49.99715" lon="5.26875">
        <ele>355</ele>
        <time>2018-02-25T12:38:27Z</time>
      </trkpt>
      <trkpt lat="49.99707" lon="5.26866">
        <ele>355</ele>
        <time>2018-02-25T12:38:38Z</time>
      </trkpt>
      <trkpt lat="49.997" lon="5.26859">
        <ele>355</ele>
        <time>2018-02-25T12:38:48Z</time>
      </trkpt>
      <trkpt lat="49.99693" lon="5.26851">
        <ele>356</ele>
        <time>2018-02-25T12:38:59Z</time>
      </trkpt>
      <trkpt lat="49.99685" lon="5.26846">
        <ele>356</ele>
        <time>2018-02-25T12:39:10Z</time>
      </trkpt>
      <trkpt lat="49.99679" lon="5.2684">
        <ele>356</ele>
        <time>2018-02-25T12:39:20Z</time>
      </trkpt>
      <trkpt lat="49.99673" lon="5.26832">
        <ele>357</ele>
        <time>2018-02-25T12:39:30Z</time>
      </trkpt>
      <trkpt lat="49.99665" lon="5.26827">
        <ele>356</ele>
        <time>2018-02-25T12:39:41Z</time>
      </trkpt>
      <trkpt lat="49.99658" lon="5.2682">
        <ele>357</ele>
        <time>2018-02-25T12:39:51Z</time>
      </trkpt>
      <trkpt lat="49.9965" lon="5.26811">
        <ele>356</ele>
        <time>2018-02-25T12:40:02Z</time>
      </trkpt>
      <trkpt lat="49.99641" lon="5.26804">
        <ele>356</ele>
        <time>2018-02-25T12:40:13Z</time>
      </trkpt>
      <trkpt lat="49.99633" lon="5.26798">
        <ele>356</ele>
        <time>2018-02-25T12:40:23Z</time>
      </trkpt>
      <trkpt lat="49.99625" lon="5.26792">
        <ele>355</ele>
        <time>2018-02-25T12:40:33Z</time>
      </trkpt>
      <trkpt lat="49.9962" lon="5.26782">
        <ele>355</ele>
        <time>2018-02-25T12:40:43Z</time>
      </trkpt>
      <trkpt lat="49.99616" lon="5.2677">
        <ele>355</ele>
        <time>2018-02-25T12:40:53Z</time>
      </trkpt>
      <trkpt lat="49.99615" lon="5.26755">
        <ele>355</ele>
        <time>2018-02-25T12:41:04Z</time>
      </trkpt>
      <trkpt lat="49.99616" lon="5.26741">
        <ele>356</ele>
        <time>2018-02-25T12:41:15Z</time>
      </trkpt>
      <trkpt lat="49.99618" lon="5.26728">
        <ele>355</ele>
        <time>2018-02-25T12:41:25Z</time>
      </trkpt>
      <trkpt lat="49.9962" lon="5.26714">
        <ele>356</ele>
        <time>2018-02-25T12:41:35Z</time>
      </trkpt>
      <trkpt lat="49.99622" lon="5.26697">
        <ele>355</ele>
        <time>2018-02-25T12:41:46Z</time>
      </trkpt>
      <trkpt lat="49.99625" lon="5.26683">
        <ele>357</ele>
        <time>2018-02-25T12:41:56Z</time>
      </trkpt>
      <trkpt lat="49.99628" lon="5.26669">
        <ele>356</ele>
        <time>2018-02-25T12:42:07Z</time>
      </trkpt>
      <trkpt lat="49.99629" lon="5.26655">
        <ele>356</ele>
        <time>2018-02-25T12:42:18Z</time>
      </trkpt>
      <trkpt lat="49.99632" lon="5.26646">
        <ele>356</ele>
        <time>2018-02-25T12:42:28Z</time>
      </trkpt>
      <trkpt lat="49.99635" lon="5.26633">
        <ele>357</ele>
        <time>2018-02-25T12:42:38Z</time>
      </trkpt>
      <trkpt lat="49.99637" lon="5.2662">
        <ele>356</ele>
        <time>2018-02-25T12:42:49Z</time>
      </trkpt>
      <trkpt lat="49.9964" lon="5.26606">
        <ele>357</ele>
        <time>2018-02-25T12:42:59Z</time>
      </trkpt>
      <trkpt lat="49.99641" lon="5.26594">
        <ele>357</ele>
        <time>2018-02-25T12:43:10Z</time>
      </trkpt>
      <trkpt lat="49.9964" lon="5.26583">
        <ele>356</ele>
        <time>2018-02-25T12:43:21Z</time>
      </trkpt>
      <trkpt lat="49.99639" lon="5.2657">
        <ele>357</ele>
        <time>2018-02-25T12:43:31Z</time>
      </trkpt>
      <trkpt lat="49.99638" lon="5.2656">
        <ele>357</ele>
        <time>2018-02-25T12:43:42Z</time>
      </trkpt>
      <trkpt lat="49.99637" lon="5.2655">
        <ele>357</ele>
        <time>2018-02-25T12:43:52Z</time>
      </trkpt>
      <trkpt lat="49.9964" lon="5.26536">
        <ele>358</ele>
        <time>2018-02-25T12:44:03Z</time>
      </trkpt>
      <trkpt lat="49.99644" lon="5.26524">
        <ele>357</ele>
        <time>2018-02-25T12:44:14Z</time>
      </trkpt>
      <trkpt lat="49.99644" lon="5.26514">
        <ele>357</ele>
        <time>2018-02-25T12:44:24Z</time>
      </trkpt>
      <trkpt lat="49.99643" lon="5.26503">
        <ele>357</ele>
        <time>2018-02-25T12:44:35Z</time>
      </trkpt>
      <trkpt lat="49.99642" lon="5.26499">
        <ele>357</ele>
        <time>2018-02-25T12:44:46Z</time>
      </trkpt>
      <trkpt lat="49.99642" lon="5.26503">
        <ele>357</ele>
        <time>2018-02-25T12:44:56Z</time>
      </trkpt>
      <trkpt lat="49.99637" lon="5.26502">
        <ele>357</ele>
        <time>2018-02-25T12:45:06Z</time>
      </trkpt>
      <trkpt lat="49.99636" lon="5.26492">
        <ele>358</ele>
        <time>2018-02-25T12:45:17Z</time>
      </trkpt>
      <trkpt lat="49.9964" lon="5.26485">
        <ele>358</ele>
        <time>2018-02-25T12:45:27Z</time>
      </trkpt>
      <trkpt lat="49.9964" lon="5.26474">
        <ele>358</ele>
        <time>2018-02-25T12:45:37Z</time>
      </trkpt>
      <trkpt lat="49.9964" lon="5.2646">
        <ele>358</ele>
        <time>2018-02-25T12:45:48Z</time>
      </trkpt>
      <trkpt lat="49.99638" lon="5.26455">
        <ele>358</ele>
        <time>2018-02-25T12:45:58Z</time>
      </trkpt>
      <trkpt lat="49.99637" lon="5.26448">
        <ele>358</ele>
        <time>2018-02-25T12:46:09Z</time>
      </trkpt>
      <trkpt lat="49.99636" lon="5.26438">
        <ele>358</ele>
        <time>2018-02-25T12:46:19Z</time>
      </trkpt>
      <trkpt lat="49.99637" lon="5.26426">
        <ele>358</ele>
        <time>2018-02-25T12:46:29Z</time>
      </trkpt>
      <trkpt lat="49.99637" lon="5.26413">
        <ele>359</ele>
        <time>2018-02-25T12:46:39Z</time>
      </trkpt>
      <trkpt lat="49.99634" lon="5.26396">
        <ele>359</ele>
        <time>2018-02-25T12:46:49Z</time>
      </trkpt>
      <trkpt lat="49.99632" lon="5.26385">
        <ele>359</ele>
        <time>2018-02-25T12:46:59Z</time>
      </trkpt>
      <trkpt lat="49.99632" lon="5.26371">
        <ele>359</ele>
        <time>2018-02-25T12:47:10Z</time>
      </trkpt>
      <trkpt lat="49.99633" lon="5.26365">
        <ele>359</ele>
        <time>2018-02-25T12:47:21Z</time>
      </trkpt>
      <trkpt lat="49.99631" lon="5.26359">
        <ele>360</ele>
        <time>2018-02-25T12:47:32Z</time>
      </trkpt>
      <trkpt lat="49.99634" lon="5.26358">
        <ele>360</ele>
        <time>2018-02-25T12:47:43Z</time>
      </trkpt>
      <trkpt lat="49.99636" lon="5.26359">
        <ele>359</ele>
        <time>2018-02-25T12:47:53Z</time>
      </trkpt>
      <trkpt lat="49.99634" lon="5.26351">
        <ele>359</ele>
        <time>2018-02-25T12:48:03Z</time>
      </trkpt>
      <trkpt lat="49.99631" lon="5.26341">
        <ele>359</ele>
        <time>2018-02-25T12:48:14Z</time>
      </trkpt>
      <trkpt lat="49.9963" lon="5.26337">
        <ele>359</ele>
        <time>2018-02-25T12:48:24Z</time>
      </trkpt>
      <trkpt lat="49.99633" lon="5.26337">
        <ele>359</ele>
        <time>2018-02-25T12:48:34Z</time>
      </trkpt>
      <trkpt lat="49.99637" lon="5.26339">
        <ele>359</ele>
        <time>2018-02-25T12:48:45Z</time>
      </trkpt>
      <trkpt lat="49.9964" lon="5.26339">
        <ele>359</ele>
        <time>2018-02-25T12:48:56Z</time>
      </trkpt>
      <trkpt lat="49.99641" lon="5.26339">
        <ele>360</ele>
        <time>2018-02-25T12:49:07Z</time>
      </trkpt>
      <trkpt lat="49.99641" lon="5.26331">
        <ele>360</ele>
        <time>2018-02-25T12:49:17Z</time>
      </trkpt>
      <trkpt lat="49.99637" lon="5.26317">
        <ele>360</ele>
        <time>2018-02-25T12:49:28Z</time>
      </trkpt>
      <trkpt lat="49.99633" lon="5.263">
        <ele>360</ele>
        <time>2018-02-25T12:49:39Z</time>
      </trkpt>
      <trkpt lat="49.99631" lon="5.26284">
        <ele>360</ele>
        <time>2018-02-25T12:49:49Z</time>
      </trkpt>
      <trkpt lat="49.9963" lon="5.26279">
        <ele>360</ele>
        <time>2018-02-25T12:50:00Z</time>
      </trkpt>
      <trkpt lat="49.9963" lon="5.26273">
        <ele>360</ele>
        <time>2018-02-25T12:50:11Z</time>
      </trkpt>
      <trkpt lat="49.99629" lon="5.26262">
        <ele>360</ele>
        <time>2018-02-25T12:50:21Z</time>
      </trkpt>
      <trkpt lat="49.99629" lon="5.26247">
        <ele>360</ele>
        <time>2018-02-25T12:50:32Z</time>
      </trkpt>
      <trkpt lat="49.99628" lon="5.26233">
        <ele>360</ele>
        <time>2018-02-25T12:50:42Z</time>
      </trkpt>
      <trkpt lat="49.99625" lon="5.26219">
        <ele>359</ele>
        <time>2018-02-25T12:50:53Z</time>
      </trkpt>
      <trkpt lat="49.99622" lon="5.26207">
        <ele>358</ele>
        <time>2018-02-25T12:51:03Z</time>
      </trkpt>
      <trkpt lat="49.99621" lon="5.26193">
        <ele>358</ele>
        <time>2018-02-25T12:51:13Z</time>
      </trkpt>
      <trkpt lat="49.99621" lon="5.26174">
        <ele>358</ele>
        <time>2018-02-25T12:51:23Z</time>
      </trkpt>
      <trkpt lat="49.9962" lon="5.26157">
        <ele>358</ele>
        <time>2018-02-25T12:51:34Z</time>
      </trkpt>
      <trkpt lat="49.99617" lon="5.26144">
        <ele>358</ele>
        <time>2018-02-25T12:51:44Z</time>
      </trkpt>
      <trkpt lat="49.99615" lon="5.26132">
        <ele>357</ele>
        <time>2018-02-25T12:51:54Z</time>
      </trkpt>
      <trkpt lat="49.99614" lon="5.26119">
        <ele>357</ele>
        <time>2018-02-25T12:52:04Z</time>
      </trkpt>
      <trkpt lat="49.99612" lon="5.26101">
        <ele>356</ele>
        <time>2018-02-25T12:52:14Z</time>
      </trkpt>
      <trkpt lat="49.99611" lon="5.26085">
        <ele>356</ele>
        <time>2018-02-25T12:52:25Z</time>
      </trkpt>
      <trkpt lat="49.9961" lon="5.26071">
        <ele>356</ele>
        <time>2018-02-25T12:52:35Z</time>
      </trkpt>
      <trkpt lat="49.99611" lon="5.26058">
        <ele>356</ele>
        <time>2018-02-25T12:52:45Z</time>
      </trkpt>
      <trkpt lat="49.99612" lon="5.26044">
        <ele>355</ele>
        <time>2018-02-25T12:52:56Z</time>
      </trkpt>
      <trkpt lat="49.99612" lon="5.26031">
        <ele>355</ele>
        <time>2018-02-25T12:53:06Z</time>
      </trkpt>
      <trkpt lat="49.99612" lon="5.26026">
        <ele>354</ele>
        <time>2018-02-25T12:53:16Z</time>
      </trkpt>
      <trkpt lat="49.99611" lon="5.26019">
        <ele>354</ele>
        <time>2018-02-25T12:53:27Z</time>
      </trkpt>
      <trkpt lat="49.99611" lon="5.26005">
        <ele>354</ele>
        <time>2018-02-25T12:53:38Z</time>
      </trkpt>
      <trkpt lat="49.99612" lon="5.2599">
        <ele>353</ele>
        <time>2018-02-25T12:53:48Z</time>
      </trkpt>
      <trkpt lat="49.99615" lon="5.25974">
        <ele>353</ele>
        <time>2018-02-25T12:53:59Z</time>
      </trkpt>
      <trkpt lat="49.99614" lon="5.25962">
        <ele>353</ele>
        <time>2018-02-25T12:54:10Z</time>
      </trkpt>
      <trkpt lat="49.99615" lon="5.25952">
        <ele>352</ele>
        <time>2018-02-25T12:54:20Z</time>
      </trkpt>
      <trkpt lat="49.99617" lon="5.25941">
        <ele>352</ele>
        <time>2018-02-25T12:54:31Z</time>
      </trkpt>
      <trkpt lat="49.99617" lon="5.25925">
        <ele>352</ele>
        <time>2018-02-25T12:54:42Z</time>
      </trkpt>
      <trkpt lat="49.99617" lon="5.2591">
        <ele>351</ele>
        <time>2018-02-25T12:54:53Z</time>
      </trkpt>
      <trkpt lat="49.99617" lon="5.25903">
        <ele>351</ele>
        <time>2018-02-25T12:55:03Z</time>
      </trkpt>
      <trkpt lat="49.99618" lon="5.25905">
        <ele>352</ele>
        <time>2018-02-25T12:55:13Z</time>
      </trkpt>
      <trkpt lat="49.99619" lon="5.259">
        <ele>352</ele>
        <time>2018-02-25T12:55:24Z</time>
      </trkpt>
      <trkpt lat="49.99621" lon="5.25887">
        <ele>351</ele>
        <time>2018-02-25T12:55:34Z</time>
      </trkpt>
      <trkpt lat="49.99617" lon="5.25874">
        <ele>350</ele>
        <time>2018-02-25T12:55:45Z</time>
      </trkpt>
      <trkpt lat="49.99616" lon="5.2586">
        <ele>349</ele>
        <time>2018-02-25T12:55:55Z</time>
      </trkpt>
      <trkpt lat="49.99616" lon="5.25845">
        <ele>349</ele>
        <time>2018-02-25T12:56:05Z</time>
      </trkpt>
      <trkpt lat="49.99615" lon="5.25827">
        <ele>348</ele>
        <time>2018-02-25T12:56:16Z</time>
      </trkpt>
      <trkpt lat="49.99618" lon="5.25811">
        <ele>348</ele>
        <time>2018-02-25T12:56:27Z</time>
      </trkpt>
      <trkpt lat="49.99618" lon="5.25801">
        <ele>347</ele>
        <time>2018-02-25T12:56:37Z</time>
      </trkpt>
      <trkpt lat="49.99617" lon="5.25786">
        <ele>346</ele>
        <time>2018-02-25T12:56:48Z</time>
      </trkpt>
      <trkpt lat="49.99617" lon="5.25772">
        <ele>346</ele>
        <time>2018-02-25T12:56:58Z</time>
      </trkpt>
      <trkpt lat="49.99615" lon="5.25759">
        <ele>345</ele>
        <time>2018-02-25T12:57:09Z</time>
      </trkpt>
      <trkpt lat="49.99615" lon="5.25751">
        <ele>346</ele>
        <time>2018-02-25T12:57:19Z</time>
      </trkpt>
      <trkpt lat="49.99614" lon="5.25742">
        <ele>345</ele>
        <time>2018-02-25T12:57:29Z</time>
      </trkpt>
      <trkpt lat="49.99613" lon="5.25729">
        <ele>345</ele>
        <time>2018-02-25T12:57:40Z</time>
      </trkpt>
      <trkpt lat="49.99612" lon="5.25715">
        <ele>344</ele>
        <time>2018-02-25T12:57:51Z</time>
      </trkpt>
      <trkpt lat="49.9961" lon="5.25698">
        <ele>344</ele>
        <time>2018-02-25T12:58:02Z</time>
      </trkpt>
      <trkpt lat="49.99609" lon="5.25682">
        <ele>343</ele>
        <time>2018-02-25T12:58:13Z</time>
      </trkpt>
      <trkpt lat="49.99609" lon="5.25669">
        <ele>343</ele>
        <time>2018-02-25T12:58:24Z</time>
      </trkpt>
      <trkpt lat="49.99614" lon="5.25655">
        <ele>342</ele>
        <time>2018-02-25T12:58:35Z</time>
      </trkpt>
      <trkpt lat="49.99622" lon="5.25645">
        <ele>342</ele>
        <time>2018-02-25T12:58:45Z</time>
      </trkpt>
      <trkpt lat="49.99636" lon="5.25636">
        <ele>343</ele>
        <time>2018-02-25T12:58:56Z</time>
      </trkpt>
      <trkpt lat="49.99647" lon="5.2563">
        <ele>343</ele>
        <time>2018-02-25T12:59:07Z</time>
      </trkpt>
      <trkpt lat="49.99654" lon="5.25625">
        <ele>344</ele>
        <time>2018-02-25T12:59:17Z</time>
      </trkpt>
      <trkpt lat="49.9966" lon="5.25624">
        <ele>344</ele>
        <time>2018-02-25T12:59:28Z</time>
      </trkpt>
      <trkpt lat="49.99668" lon="5.25619">
        <ele>343</ele>
        <time>2018-02-25T12:59:39Z</time>
      </trkpt>
      <trkpt lat="49.99676" lon="5.25613">
        <ele>344</ele>
        <time>2018-02-25T12:59:49Z</time>
      </trkpt>
      <trkpt lat="49.99684" lon="5.25608">
        <ele>344</ele>
        <time>2018-02-25T12:59:59Z</time>
      </trkpt>
      <trkpt lat="49.99694" lon="5.25603">
        <ele>344</ele>
        <time>2018-02-25T13:00:10Z</time>
      </trkpt>
      <trkpt lat="49.99703" lon="5.25599">
        <ele>345</ele>
        <time>2018-02-25T13:00:21Z</time>
      </trkpt>
      <trkpt lat="49.99711" lon="5.25594">
        <ele>344</ele>
        <time>2018-02-25T13:00:31Z</time>
      </trkpt>
      <trkpt lat="49.9972" lon="5.2559">
        <ele>345</ele>
        <time>2018-02-25T13:00:41Z</time>
      </trkpt>
      <trkpt lat="49.99729" lon="5.25587">
        <ele>345</ele>
        <time>2018-02-25T13:00:52Z</time>
      </trkpt>
      <trkpt lat="49.99742" lon="5.25584">
        <ele>346</ele>
        <time>2018-02-25T13:01:02Z</time>
      </trkpt>
      <trkpt lat="49.9975" lon="5.25582">
        <ele>347</ele>
        <time>2018-02-25T13:01:13Z</time>
      </trkpt>
      <trkpt lat="49.99757" lon="5.25579">
        <ele>346</ele>
        <time>2018-02-25T13:01:23Z</time>
      </trkpt>
      <trkpt lat="49.99763" lon="5.25577">
        <ele>347</ele>
        <time>2018-02-25T13:01:34Z</time>
      </trkpt>
      <trkpt lat="49.99768" lon="5.25576">
        <ele>348</ele>
        <time>2018-02-25T13:01:44Z</time>
      </trkpt>
      <trkpt lat="49.99773" lon="5.25573">
        <ele>348</ele>
        <time>2018-02-25T13:01:54Z</time>
      </trkpt>
      <trkpt lat="49.99781" lon="5.25569">
        <ele>348</ele>
        <time>2018-02-25T13:02:05Z</time>
      </trkpt>
      <trkpt lat="49.99789" lon="5.25565">
        <ele>349</ele>
        <time>2018-02-25T13:02:15Z</time>
      </trkpt>
      <trkpt lat="49.998" lon="5.25558">
        <ele>349</ele>
        <time>2018-02-25T13:02:26Z</time>
      </trkpt>
      <trkpt lat="49.99813" lon="5.25552">
        <ele>349</ele>
        <time>2018-02-25T13:02:37Z</time>
      </trkpt>
      <trkpt lat="49.9982" lon="5.25548">
        <ele>349</ele>
        <time>2018-02-25T13:02:47Z</time>
      </trkpt>
      <trkpt lat="49.99826" lon="5.25542">
        <ele>349</ele>
        <time>2018-02-25T13:02:58Z</time>
      </trkpt>
      <trkpt lat="49.99833" lon="5.25535">
        <ele>350</ele>
        <time>2018-02-25T13:03:08Z</time>
      </trkpt>
      <trkpt lat="49.99843" lon="5.25528">
        <ele>350</ele>
        <time>2018-02-25T13:03:19Z</time>
      </trkpt>
      <trkpt lat="49.99853" lon="5.25521">
        <ele>350</ele>
        <time>2018-02-25T13:03:30Z</time>
      </trkpt>
      <trkpt lat="49.9986" lon="5.25516">
        <ele>350</ele>
        <time>2018-02-25T13:03:40Z</time>
      </trkpt>
      <trkpt lat="49.99862" lon="5.25514">
        <ele>350</ele>
        <time>2018-02-25T13:03:51Z</time>
      </trkpt>
      <trkpt lat="49.99859" lon="5.25513">
        <ele>351</ele>
        <time>2018-02-25T13:04:02Z</time>
      </trkpt>
      <trkpt lat="49.99862" lon="5.25512">
        <ele>351</ele>
        <time>2018-02-25T13:04:13Z</time>
      </trkpt>
      <trkpt lat="49.9987" lon="5.25507">
        <ele>352</ele>
        <time>2018-02-25T13:04:23Z</time>
      </trkpt>
      <trkpt lat="49.99879" lon="5.255">
        <ele>352</ele>
        <time>2018-02-25T13:04:34Z</time>
      </trkpt>
      <trkpt lat="49.99889" lon="5.25494">
        <ele>353</ele>
        <time>2018-02-25T13:04:45Z</time>
      </trkpt>
      <trkpt lat="49.99897" lon="5.25495">
        <ele>352</ele>
        <time>2018-02-25T13:04:55Z</time>
      </trkpt>
      <trkpt lat="49.99904" lon="5.25501">
        <ele>352</ele>
        <time>2018-02-25T13:05:05Z</time>
      </trkpt>
      <trkpt lat="49.99913" lon="5.2551">
        <ele>352</ele>
        <time>2018-02-25T13:05:16Z</time>
      </trkpt>
      <trkpt lat="49.99918" lon="5.25515">
        <ele>353</ele>
        <time>2018-02-25T13:05:26Z</time>
      </trkpt>
      <trkpt lat="49.99925" lon="5.2552">
        <ele>353</ele>
        <time>2018-02-25T13:05:36Z</time>
      </trkpt>
      <trkpt lat="49.99931" lon="5.25525">
        <ele>353</ele>
        <time>2018-02-25T13:05:46Z</time>
      </trkpt>
      <trkpt lat="49.99937" lon="5.25528">
        <ele>353</ele>
        <time>2018-02-25T13:05:57Z</time>
      </trkpt>
      <trkpt lat="49.9994" lon="5.25528">
        <ele>354</ele>
        <time>2018-02-25T13:06:07Z</time>
      </trkpt>
      <trkpt lat="49.99942" lon="5.25526">
        <ele>354</ele>
        <time>2018-02-25T13:06:17Z</time>
      </trkpt>
      <trkpt lat="49.99943" lon="5.25525">
        <ele>353</ele>
        <time>2018-02-25T13:06:28Z</time>
      </trkpt>
      <trkpt lat="49.99944" lon="5.25525">
        <ele>353</ele>
        <time>2018-02-25T13:06:39Z</time>
      </trkpt>
      <trkpt lat="49.99943" lon="5.25523">
        <ele>354</ele>
        <time>2018-02-25T13:06:49Z</time>
      </trkpt>
      <trkpt lat="49.99941" lon="5.25524">
        <ele>354</ele>
        <time>2018-02-25T13:06:59Z</time>
      </trkpt>
      <trkpt lat="49.9994" lon="5.25526">
        <ele>353</ele>
        <time>2018-02-25T13:07:10Z</time>
      </trkpt>
      <trkpt lat="49.99941" lon="5.25526">
        <ele>354</ele>
        <time>2018-02-25T13:07:20Z</time>
      </trkpt>
      <trkpt lat="49.9994" lon="5.25526">
        <ele>354</ele>
        <time>2018-02-25T13:07:31Z</time>
      </trkpt>
      <trkpt lat="49.99941" lon="5.25527">
        <ele>354</ele>
        <time>2018-02-25T13:07:41Z</time>
      </trkpt>
      <trkpt lat="49.99943" lon="5.25521">
        <ele>354</ele>
        <time>2018-02-25T13:07:52Z</time>
      </trkpt>
      <trkpt lat="49.99942" lon="5.25518">
        <ele>353</ele>
        <time>2018-02-25T13:08:02Z</time>
      </trkpt>
      <trkpt lat="49.99942" lon="5.25518">
        <ele>353</ele>
        <time>2018-02-25T13:08:12Z</time>
      </trkpt>
      <trkpt lat="49.9994" lon="5.25519">
        <ele>353</ele>
        <time>2018-02-25T13:08:22Z</time>
      </trkpt>
      <trkpt lat="49.99937" lon="5.25521">
        <ele>354</ele>
        <time>2018-02-25T13:08:33Z</time>
      </trkpt>
      <trkpt lat="49.99935" lon="5.2552">
        <ele>354</ele>
        <time>2018-02-25T13:08:43Z</time>
      </trkpt>
      <trkpt lat="49.99934" lon="5.25519">
        <ele>354</ele>
        <time>2018-02-25T13:08:53Z</time>
      </trkpt>
      <trkpt lat="49.99931" lon="5.25519">
        <ele>354</ele>
        <time>2018-02-25T13:09:04Z</time>
      </trkpt>
      <trkpt lat="49.99931" lon="5.25517">
        <ele>354</ele>
        <time>2018-02-25T13:09:15Z</time>
      </trkpt>
      <trkpt lat="49.99934" lon="5.25512">
        <ele>354</ele>
        <time>2018-02-25T13:09:25Z</time>
      </trkpt>
      <trkpt lat="49.99934" lon="5.25514">
        <ele>354</ele>
        <time>2018-02-25T13:09:35Z</time>
      </trkpt>
      <trkpt lat="49.99936" lon="5.25518">
        <ele>354</ele>
        <time>2018-02-25T13:09:46Z</time>
      </trkpt>
      <trkpt lat="49.9994" lon="5.25521">
        <ele>354</ele>
        <time>2018-02-25T13:09:56Z</time>
      </trkpt>
      <trkpt lat="49.99941" lon="5.25522">
        <ele>354</ele>
        <time>2018-02-25T13:09:57Z</time>
      </trkpt>
    </trkseg>
  </trk>
</gpx>